Time;durP1;ratioP1;P1;durP2;ratioP2;P2;SDS_P1;SDS_P2;PMS_P1;PMS_P2;Temp;Humidity;BMP_temperature;BMP_pressure;BME280_temperature;BME280_humidity;BME280_pressure;Samples;Min_cycle;Max_cycle;Signal;HPM_P1;HPM_P2
2022/05/12 00:02:12;;;;;;;5.05;2.92;;;;;;;19.86;49.66;98668.13;5091412;28;20044;-63
2022/05/12 00:04:57;;;;;;;4.97;2.60;;;;;;;20.03;50.43;98672.47;5091821;28;20050;-62
2022/05/12 00:07:43;;;;;;;4.53;2.60;;;;;;;19.96;49.53;98666.13;5092095;28;20040;-62
2022/05/12 00:10:27;;;;;;;3.63;2.95;;;;;;;19.90;49.78;98672.94;5091908;28;20032;-63
2022/05/12 00:13:12;;;;;;;4.43;2.53;;;;;;;20.29;48.47;98668.75;5091000;28;20044;-64
2022/05/12 00:15:58;;;;;;;3.13;2.42;;;;;;;19.93;48.64;98677.09;5092079;28;20041;-63
2022/05/12 00:18:43;;;;;;;4.35;2.92;;;;;;;19.90;48.37;98672.09;5092136;28;20506;-63
2022/05/12 00:21:28;;;;;;;5.32;2.72;;;;;;;19.85;49.31;98669.13;5091199;28;20114;-62
2022/05/12 00:24:16;;;;;;;4.75;2.53;;;;;;;19.47;50.03;98673.13;5091556;28;20063;-63
2022/05/12 00:27:01;;;;;;;3.35;2.20;;;;;;;19.88;50.21;98661.66;5092129;28;20123;-62
2022/05/12 00:29:46;;;;;;;4.10;2.42;;;;;;;20.01;49.46;98661.13;5091729;28;20044;-63
2022/05/12 00:32:31;;;;;;;4.32;2.67;;;;;;;19.93;49.06;98667.28;5091669;28;20507;-63
2022/05/12 00:35:17;;;;;;;4.75;3.15;;;;;;;19.73;50.27;98673.97;5092065;28;20491;-63
2022/05/12 00:38:02;;;;;;;3.38;2.20;;;;;;;19.74;49.99;98667.66;5091695;28;20059;-63
2022/05/12 00:40:49;;;;;;;5.35;2.72;;;;;;;19.88;49.70;98666.16;5062682;28;20062;-62
2022/05/12 00:43:39;;;;;;;3.28;2.60;;;;;;;19.61;50.00;98671.66;5091133;28;20040;-62
2022/05/12 00:46:28;;;;;;;3.70;2.67;;;;;;;19.65;51.34;98670.31;5078815;28;20180;-63
2022/05/12 00:49:25;;;;;;;2.90;2.20;;;;;;;19.64;50.92;98675.78;5094301;28;20063;-62
2022/05/12 00:52:15;;;;;;;3.30;2.33;;;;;;;19.62;50.81;98661.84;5095274;28;20500;-62
2022/05/12 00:55:09;;;;;;;5.22;2.85;;;;;;;19.87;50.33;98660.00;5094817;28;20040;-61
2022/05/12 00:57:55;;;;;;;5.85;2.92;;;;;;;19.63;51.05;98667.00;5094417;28;20079;-63
2022/05/12 01:00:40;;;;;;;3.88;2.65;;;;;;;19.82;51.06;98663.16;5094687;28;20065;-63
2022/05/12 01:03:26;;;;;;;5.32;2.78;;;;;;;19.51;51.70;98668.31;5094385;28;20475;-64
2022/05/12 01:06:13;;;;;;;5.22;3.13;;;;;;;19.64;51.72;98654.53;5094399;28;20093;-63
2022/05/12 01:08:58;;;;;;;5.97;3.30;;;;;;;19.39;52.21;98670.50;5094312;28;20040;-62
2022/05/12 01:11:43;;;;;;;4.20;2.83;;;;;;;19.66;52.13;98664.00;5094339;28;20046;-62
2022/05/12 01:14:28;;;;;;;5.93;2.78;;;;;;;19.55;52.39;98669.66;5095304;28;20047;-62
2022/05/12 01:17:12;;;;;;;3.60;2.65;;;;;;;19.74;51.71;98663.16;5095047;28;20036;-62
2022/05/12 01:19:57;;;;;;;5.25;2.63;;;;;;;19.79;51.94;98657.34;5095456;28;20040;-62
2022/05/12 01:22:50;;;;;;;3.80;2.95;;;;;;;19.59;52.54;98668.31;5094935;28;20032;-62
2022/05/12 01:25:35;;;;;;;4.90;3.08;;;;;;;19.44;53.05;98662.81;5093967;28;20071;-63
2022/05/12 01:28:20;;;;;;;4.10;2.83;;;;;;;19.38;53.30;98668.81;5094606;28;20111;-62
2022/05/12 01:31:06;;;;;;;4.43;2.75;;;;;;;19.16;54.28;98666.63;5094068;28;20048;-62
2022/05/12 01:33:51;;;;;;;4.40;2.80;;;;;;;19.08;54.37;98662.09;5095141;28;20040;-61
2022/05/12 01:36:37;;;;;;;5.53;3.00;;;;;;;18.92;54.74;98664.72;5095233;28;20085;-63
2022/05/12 01:39:21;;;;;;;5.00;2.90;;;;;;;18.76;55.44;98663.69;5089214;28;20036;-62
2022/05/12 01:42:08;;;;;;;4.13;2.83;;;;;;;19.16;54.83;98663.97;5087333;28;20052;-64
2022/05/12 01:44:52;;;;;;;4.35;3.33;;;;;;;19.08;54.65;98664.75;5076218;28;20054;-62
2022/05/12 01:47:39;;;;;;;4.55;2.75;;;;;;;19.03;54.86;98668.91;5086485;28;20074;-62
2022/05/12 01:50:24;;;;;;;4.85;3.15;;;;;;;19.23;54.44;98658.84;5093334;28;20032;-62
2022/05/12 01:53:10;;;;;;;6.05;3.30;;;;;;;19.01;54.82;98663.75;5094555;28;20048;-63
2022/05/12 01:55:54;;;;;;;3.92;2.88;;;;;;;18.95;55.82;98669.69;5094216;28;20032;-62
2022/05/12 01:58:39;;;;;;;5.22;2.90;;;;;;;19.16;54.73;98661.31;5093815;28;20134;-62
2022/05/12 02:01:23;;;;;;;3.70;2.90;;;;;;;19.13;54.79;98668.78;5095032;28;20050;-62
2022/05/12 02:04:08;;;;;;;4.13;2.85;;;;;;;18.84;55.39;98668.19;5093225;28;20055;-63
2022/05/12 02:06:53;;;;;;;4.28;2.80;;;;;;;18.68;56.57;98675.09;5094529;28;20040;-63
2022/05/12 02:09:37;;;;;;;5.60;3.10;;;;;;;18.59;56.98;98682.19;5093009;28;20094;-63
2022/05/12 02:12:22;;;;;;;6.55;3.50;;;;;;;18.54;56.76;98671.22;5093230;28;20432;-63
2022/05/12 02:15:08;;;;;;;4.93;3.08;;;;;;;18.75;56.42;98677.97;5093993;28;20040;-64
2022/05/12 02:17:52;;;;;;;4.35;3.10;;;;;;;18.62;57.03;98673.09;5078879;28;20379;-64
2022/05/12 02:20:37;;;;;;;4.72;3.30;;;;;;;18.87;56.54;98670.50;5093876;28;20047;-63
2022/05/12 02:23:22;;;;;;;4.10;3.00;;;;;;;18.89;56.04;98678.31;5093966;28;20478;-63
2022/05/12 02:26:07;;;;;;;3.80;2.92;;;;;;;19.08;55.84;98667.41;5093373;28;20101;-63
2022/05/12 02:28:52;;;;;;;5.88;3.28;;;;;;;18.84;56.26;98674.31;5092513;28;20486;-64
2022/05/12 02:31:36;;;;;;;5.45;3.33;;;;;;;18.89;56.25;98668.53;5093171;28;20115;-62
2022/05/12 02:34:21;;;;;;;3.85;3.08;;;;;;;18.88;56.43;98676.66;5093334;28;20115;-63
2022/05/12 02:37:06;;;;;;;3.88;3.05;;;;;;;18.89;56.69;98668.53;5093312;28;20055;-63
2022/05/12 02:39:51;;;;;;;5.32;3.50;;;;;;;18.67;56.72;98677.91;5093734;28;20048;-63
2022/05/12 02:42:36;;;;;;;5.82;3.38;;;;;;;18.87;56.49;98667.03;5093484;28;20089;-63
2022/05/12 02:45:20;;;;;;;6.75;3.65;;;;;;;18.61;56.99;98670.56;5093352;28;20051;-63
2022/05/12 02:48:05;;;;;;;5.38;3.38;;;;;;;18.89;56.39;98673.00;5078046;28;20478;-64
2022/05/12 02:50:50;;;;;;;4.20;2.63;;;;;;;18.77;56.90;98670.66;5085904;28;20115;-63
2022/05/12 02:53:35;;;;;;;4.50;3.10;;;;;;;18.88;56.73;98672.19;5092280;28;20394;-64
2022/05/12 02:56:20;;;;;;;6.95;3.00;;;;;;;18.93;56.63;98674.34;5090138;28;20057;-64
2022/05/12 02:59:06;;;;;;;3.88;2.80;;;;;;;18.86;56.90;98675.97;5090438;28;20044;-63
2022/05/12 03:01:51;;;;;;;4.13;3.15;;;;;;;18.59;57.09;98679.53;5095700;28;20073;-62
2022/05/12 03:04:35;;;;;;;8.15;3.80;;;;;;;18.65;57.18;98680.72;5089343;28;20093;-62
2022/05/12 03:07:20;;;;;;;5.18;3.42;;;;;;;18.85;56.78;98688.41;5107362;28;20043;-63
2022/05/12 03:10:05;;;;;;;5.50;3.75;;;;;;;18.81;57.07;98687.09;5111804;28;20449;-64
2022/05/12 03:12:50;;;;;;;5.53;3.65;;;;;;;18.57;57.32;98686.00;5086485;28;20547;-63
2022/05/12 03:15:35;;;;;;;4.38;3.47;;;;;;;18.55;57.71;98683.50;5093090;28;20040;-62
2022/05/12 03:18:20;;;;;;;5.60;3.38;;;;;;;18.58;58.49;98685.84;5092138;28;20044;-64
2022/05/12 03:21:05;;;;;;;6.90;3.30;;;;;;;18.52;59.78;98686.47;5095206;28;20079;-62
2022/05/12 03:23:50;;;;;;;4.90;3.42;;;;;;;18.76;58.55;98700.84;5077316;28;20036;-62
2022/05/12 03:26:35;;;;;;;7.65;3.72;;;;;;;18.50;59.16;98700.88;5092560;28;20059;-63
2022/05/12 03:29:19;;;;;;;7.10;3.78;;;;;;;18.55;58.44;98699.44;5105855;28;20131;-62
2022/05/12 03:32:09;;;;;;;5.28;3.35;;;;;;;18.34;59.01;98697.16;5091830;28;20040;-63
2022/05/12 03:34:53;;;;;;;7.38;3.58;;;;;;;18.62;59.50;98702.28;5091969;28;20044;-63
2022/05/12 03:37:39;;;;;;;6.47;3.65;;;;;;;18.71;58.63;98711.09;5105817;28;20120;-63
2022/05/12 03:40:24;;;;;;;5.95;3.92;;;;;;;18.45;58.87;98710.16;5091232;28;20051;-62
2022/05/12 03:43:08;;;;;;;7.22;4.32;;;;;;;18.38;58.85;98710.94;5091277;28;20607;-63
2022/05/12 03:45:53;;;;;;;7.07;3.95;;;;;;;18.05;60.19;98715.00;5092333;28;20048;-63
2022/05/12 03:48:39;;;;;;;4.28;3.22;;;;;;;18.18;60.31;98714.63;5092625;28;20036;-62
2022/05/12 03:51:25;;;;;;;4.35;3.35;;;;;;;18.39;59.60;98717.91;5077101;28;20047;-64
2022/05/12 03:54:09;;;;;;;4.70;3.58;;;;;;;18.95;57.88;98722.78;5092664;28;20040;-62
2022/05/12 03:56:54;;;;;;;4.97;3.35;;;;;;;18.80;57.94;98714.63;5091398;28;20113;-64
2022/05/12 03:59:41;;;;;;;7.00;3.70;;;;;;;18.71;58.17;98724.34;5092679;28;20050;-64
2022/05/12 04:02:26;;;;;;;7.70;3.97;;;;;;;18.65;58.51;98722.34;5092715;28;20471;-63
2022/05/12 04:05:10;;;;;;;5.72;3.80;;;;;;;18.97;57.71;98726.09;5091682;28;20040;-64
2022/05/12 04:07:55;;;;;;;4.50;3.53;;;;;;;18.78;57.78;98720.09;5092563;28;20048;-62
2022/05/12 04:10:40;;;;;;;5.03;3.55;;;;;;;18.98;57.31;98719.00;5092315;28;20036;-62
2022/05/12 04:13:25;;;;;;;5.63;3.60;;;;;;;18.92;57.84;98723.09;5091166;28;20092;-60
2022/05/12 04:16:10;;;;;;;6.03;4.22;;;;;;;18.91;57.90;98727.59;5097042;28;20098;-62
2022/05/12 04:18:54;;;;;;;5.93;3.72;;;;;;;18.86;57.85;98729.06;5082180;28;20031;-62
2022/05/12 04:21:40;;;;;;;7.20;4.80;;;;;;;19.01;57.66;98727.47;5094951;28;20062;-61
2022/05/12 04:24:24;;;;;;;4.88;3.53;;;;;;;18.99;57.97;98740.06;5093264;28;20067;-64
2022/05/12 04:27:10;;;;;;;6.25;4.47;;;;;;;19.26;57.01;98740.81;5090832;28;20398;-63
2022/05/12 04:29:55;;;;;;;4.78;3.60;;;;;;;18.98;57.98;98737.56;5091930;28;20084;-67
2022/05/12 04:32:41;;;;;;;8.30;5.40;;;;;;;19.15;57.85;98747.28;5091595;28;20051;-62
2022/05/12 04:35:27;;;;;;;13.10;6.20;;;;;;;18.95;58.82;98736.03;5112912;28;20051;-63
2022/05/12 04:38:12;;;;;;;13.15;4.35;;;;;;;19.26;59.12;98743.47;5111805;28;20043;-61
2022/05/12 04:40:56;;;;;;;12.68;4.60;;;;;;;19.49;57.86;98752.66;5097406;28;20048;-63
2022/05/12 04:43:42;;;;;;;9.15;5.35;;;;;;;19.56;57.19;98751.84;5097086;28;20058;-63
2022/05/12 04:46:28;;;;;;;9.82;6.90;;;;;;;19.41;56.90;98761.44;5092624;28;20498;-63
2022/05/12 04:49:13;;;;;;;6.40;4.22;;;;;;;19.32;58.53;98755.28;5093315;28;20122;-61
2022/05/12 04:52:02;;;;;;;8.10;4.55;;;;;;;19.26;58.83;98759.41;5078274;28;20192;-62
2022/05/12 04:54:47;;;;;;;8.70;4.43;;;;;;;19.31;60.74;98759.75;5091830;28;20046;-63
2022/05/12 04:57:41;;;;;;;6.20;4.35;;;;;;;19.41;59.02;98762.28;5062086;28;20040;-62
2022/05/12 05:00:30;;;;;;;8.07;4.70;;;;;;;19.40;59.42;98767.75;5092026;28;20060;-61
2022/05/12 05:03:16;;;;;;;6.82;4.72;;;;;;;19.04;59.96;98766.13;5099474;28;20141;-63
2022/05/12 05:06:00;;;;;;;5.43;4.22;;;;;;;18.71;63.51;98775.59;5087988;28;20063;-62
2022/05/12 05:08:45;;;;;;;7.75;5.53;;;;;;;18.77;61.23;98768.81;5090841;28;20048;-61
2022/05/12 05:11:30;;;;;;;9.43;5.07;;;;;;;18.45;62.67;98773.78;5091257;28;20463;-63
2022/05/12 05:14:15;;;;;;;8.15;5.35;;;;;;;18.69;62.00;98779.38;5075706;28;20051;-61
2022/05/12 05:16:59;;;;;;;8.57;5.68;;;;;;;18.41;62.60;98777.72;5090054;28;20119;-62
2022/05/12 05:19:44;;;;;;;8.65;5.45;;;;;;;18.63;63.07;98782.66;5090824;28;20036;-63
2022/05/12 05:22:29;;;;;;;8.90;6.00;;;;;;;18.78;62.58;98788.22;5088109;28;20032;-58
2022/05/12 05:25:15;;;;;;;14.90;6.75;;;;;;;18.52;63.81;98795.22;5090210;28;20048;-62
2022/05/12 05:27:59;;;;;;;9.93;5.65;;;;;;;18.89;62.89;98789.75;5087862;28;20101;-62
2022/05/12 05:30:45;;;;;;;15.10;9.48;;;;;;;19.30;61.10;98794.44;5075840;28;20048;-61
2022/05/12 05:33:30;;;;;;;10.80;5.50;;;;;;;19.60;60.76;98800.16;5093619;28;20475;-61
2022/05/12 05:36:15;;;;;;;9.00;5.32;;;;;;;19.30;61.31;98802.41;5093739;28;20044;-61
2022/05/12 05:39:00;;;;;;;9.20;6.00;;;;;;;19.80;60.70;98808.66;5093797;28;20032;-63
2022/05/12 05:41:45;;;;;;;7.68;4.80;;;;;;;20.09;59.41;98806.53;5073157;28;20085;-62
2022/05/12 05:44:32;;;;;;;11.05;5.20;;;;;;;20.35;58.93;98810.84;5064932;28;20068;-60
2022/05/12 05:47:17;;;;;;;11.20;6.78;;;;;;;19.57;59.78;98811.94;5093570;28;20043;-62
2022/05/12 05:50:01;;;;;;;8.60;5.20;;;;;;;19.56;61.27;98809.44;5079167;28;20419;-62
2022/05/12 05:55:51;;;;;;;11.93;6.75;;;;;;;20.13;57.61;98817.66;5093263;28;20086;-61
2022/05/12 05:58:35;;;;;;;11.07;7.38;;;;;;;20.53;56.34;98825.81;5094116;28;20036;-60
2022/05/12 06:01:20;;;;;;;9.55;5.43;;;;;;;19.99;58.39;98824.47;5094520;28;20097;-60
2022/05/12 06:04:05;;;;;;;10.20;6.40;;;;;;;20.34;57.61;98819.81;5092811;28;20387;-59
2022/05/12 06:06:50;;;;;;;10.50;6.10;;;;;;;20.53;56.52;98823.94;5093101;28;20047;-60
2022/05/12 06:09:34;;;;;;;11.45;7.72;;;;;;;20.54;56.75;98825.63;5094075;28;20497;-61
2022/05/12 06:12:20;;;;;;;13.55;8.00;;;;;;;20.66;56.35;98838.59;5091708;28;20048;-62
2022/05/12 06:15:05;;;;;;;13.73;7.30;;;;;;;20.38;56.13;98829.16;5092585;28;20047;-60
2022/05/12 06:17:50;;;;;;;11.85;6.47;;;;;;;20.87;54.97;98830.06;5092777;28;20085;-62
2022/05/12 06:20:37;;;;;;;8.98;5.30;;;;;;;21.62;52.90;98826.25;5107358;28;20043;-61
2022/05/12 06:23:22;;;;;;;8.63;6.20;;;;;;;21.77;52.36;98832.50;5092700;28;20063;-61
2022/05/12 06:26:13;;;;;;;15.00;7.35;;;;;;;21.62;52.99;98829.75;5093763;28;20393;-61
2022/05/12 06:28:58;;;;;;;9.23;6.57;;;;;;;21.88;52.86;98830.44;5093489;28;20040;-62
2022/05/12 06:31:42;;;;;;;13.30;8.30;;;;;;;21.93;52.25;98827.25;5092800;28;20427;-61
2022/05/12 06:34:28;;;;;;;12.40;8.13;;;;;;;22.42;50.47;98834.03;5094099;28;20043;-60
2022/05/12 06:37:13;;;;;;;10.88;7.60;;;;;;;23.11;48.99;98834.81;5095930;28;20048;-61
2022/05/12 06:39:58;;;;;;;11.27;7.10;;;;;;;23.58;47.60;98831.09;5078831;28;20040;-63
2022/05/12 06:42:43;;;;;;;10.60;7.07;;;;;;;23.67;47.16;98831.78;5092104;28;20036;-60
2022/05/12 06:45:29;;;;;;;11.57;6.90;;;;;;;23.92;46.44;98829.59;5064550;28;20047;-61
2022/05/12 06:48:14;;;;;;;10.93;7.35;;;;;;;24.20;45.43;98826.16;5064679;28;20100;-61
2022/05/12 06:50:59;;;;;;;13.45;7.30;;;;;;;24.52;45.32;98828.44;5078421;28;20066;-62
2022/05/12 06:53:45;;;;;;;10.13;5.85;;;;;;;24.18;45.58;98828.19;5078442;28;20515;-61
2022/05/12 06:56:30;;;;;;;7.30;5.65;;;;;;;24.75;45.06;98838.06;5093436;28;20101;-61
2022/05/12 06:59:15;;;;;;;11.48;6.72;;;;;;;24.95;43.96;98842.75;5064225;28;20036;-61
2022/05/12 07:02:01;;;;;;;9.73;6.10;;;;;;;24.85;44.29;98835.88;5050175;28;20108;-62
2022/05/12 07:04:46;;;;;;;10.80;7.35;;;;;;;24.65;45.01;98835.75;5077591;28;20043;-62
2022/05/12 07:07:33;;;;;;;11.70;6.15;;;;;;;24.20;46.12;98836.88;5091759;28;20044;-63
2022/05/12 07:10:20;;;;;;;10.20;5.97;;;;;;;24.68;44.81;98832.66;5064072;28;20499;-61
2022/05/12 07:13:05;;;;;;;8.93;5.93;;;;;;;24.93;44.61;98839.44;5092801;28;20051;-53
2022/05/12 07:15:50;;;;;;;12.25;5.97;;;;;;;25.17;44.17;98834.59;5087624;28;20032;-52
2022/05/12 07:18:36;;;;;;;8.75;5.70;;;;;;;25.50;43.23;98830.41;5089896;28;20040;-51
2022/05/12 07:27:27;;;;;;;10.80;6.00;;;;;;;25.30;43.80;98841.88;5090576;28;20040;-51
2022/05/12 07:30:14;;;;;;;10.75;5.18;;;;;;;26.20;42.10;98845.41;5089465;28;20077;-56
2022/05/12 07:32:59;;;;;;;8.45;6.10;;;;;;;26.27;41.70;98845.41;5090569;28;20063;-51
2022/05/12 07:35:43;;;;;;;9.30;5.30;;;;;;;26.20;41.96;98837.34;5074148;28;20085;-50
2022/05/12 07:38:28;;;;;;;8.63;5.72;;;;;;;26.43;41.70;98841.50;5102889;28;20044;-55
2022/05/12 07:41:14;;;;;;;8.13;5.30;;;;;;;27.41;39.62;98846.25;5089104;28;20065;-50
2022/05/12 07:44:00;;;;;;;9.48;5.85;;;;;;;27.60;39.59;98847.16;5103097;28;20106;-49
2022/05/12 07:46:47;;;;;;;7.28;4.60;;;;;;;27.24;39.60;98856.66;5088966;28;20024;-54
2022/05/12 07:49:35;;;;;;;8.70;4.38;;;;;;;27.54;39.49;98853.41;5090493;28;20040;-54
2022/05/12 07:52:20;;;;;;;7.60;4.32;;;;;;;27.91;38.54;98844.72;5090374;28;20051;-51
2022/05/12 07:55:05;;;;;;;10.27;4.38;;;;;;;28.41;38.01;98848.53;5092782;28;20044;-60
2022/05/12 07:57:50;;;;;;;6.70;4.10;;;;;;;28.73;36.92;98855.69;5093324;28;20488;-61
2022/05/12 08:00:35;;;;;;;6.15;4.10;;;;;;;29.39;36.67;98852.50;5090786;28;20129;-62
2022/05/12 08:03:21;;;;;;;6.95;4.22;;;;;;;29.87;36.05;98847.28;5103013;28;20494;-63
2022/05/12 08:06:07;;;;;;;5.57;3.80;;;;;;;29.26;35.25;98846.19;5090612;28;20032;-64
2022/05/12 08:08:52;;;;;;;5.57;3.50;;;;;;;29.44;35.35;98849.94;5090028;28;20047;-63
2022/05/12 08:11:36;;;;;;;6.88;3.75;;;;;;;29.32;35.38;98849.88;5089654;28;20044;-65
2022/05/12 08:14:21;;;;;;;9.25;3.78;;;;;;;29.52;35.09;98848.81;5072472;28;20090;-65
2022/05/12 08:17:06;;;;;;;5.07;3.30;;;;;;;29.29;35.02;98860.28;5088117;28;20089;-63
2022/05/12 08:19:51;;;;;;;4.75;3.08;;;;;;;28.73;35.55;98858.38;5089185;28;20040;-62
2022/05/12 08:22:36;;;;;;;5.78;3.72;;;;;;;29.13;34.57;98857.97;5089799;28;20032;-61
2022/05/12 08:25:20;;;;;;;6.28;3.03;;;;;;;29.09;34.68;98861.34;5087550;28;20110;-61
2022/05/12 08:28:06;;;;;;;5.93;2.78;;;;;;;29.29;34.10;98863.81;5087695;28;20097;-64
2022/05/12 08:30:52;;;;;;;8.25;2.97;;;;;;;28.83;34.12;98863.25;5087689;28;20039;-63
2022/05/12 08:33:38;;;;;;;4.78;3.30;;;;;;;28.41;35.27;98857.41;5080175;28;20036;-63
2022/05/12 08:36:22;;;;;;;6.43;2.85;;;;;;;28.99;35.11;98861.88;5089693;28;20028;-63
2022/05/12 08:39:07;;;;;;;4.75;2.53;;;;;;;29.16;33.32;98855.88;5089787;28;20044;-63
2022/05/12 08:42:04;;;;;;;4.22;2.70;;;;;;;28.98;34.32;98860.22;5074612;28;20170;-62
2022/05/12 08:44:50;;;;;;;7.10;3.05;;;;;;;29.52;33.78;98859.59;5071998;28;20126;-61
2022/05/12 08:47:47;;;;;;;3.92;2.67;;;;;;;29.66;33.64;98860.25;5080161;28;20083;-66
2022/05/12 08:50:33;;;;;;;4.82;2.63;;;;;;;30.46;32.75;98865.50;5089745;28;20093;-63
2022/05/12 08:53:25;;;;;;;5.72;2.60;;;;;;;29.44;33.36;98860.75;5089668;28;20051;-63
2022/05/12 08:56:12;;;;;;;6.55;2.53;;;;;;;30.02;33.51;98852.25;5088256;28;20494;-63
2022/05/12 08:58:57;;;;;;;10.48;3.03;;;;;;;30.36;33.32;98851.72;5088961;28;20036;-63
2022/05/12 09:02:10;;;;;;;5.00;2.72;;;;;;;31.23;31.95;98860.16;5088318;28;20032;-63
2022/05/12 09:05:11;;;;;;;3.47;2.42;;;;;;;31.62;31.39;98847.06;5089223;28;20370;-62
2022/05/12 09:08:19;;;;;;;3.65;2.50;;;;;;;31.48;31.14;98850.09;5091973;28;20043;-67
2022/05/12 09:11:14;;;;;;;4.22;2.25;;;;;;;31.83;30.31;98856.38;5081230;28;20039;-64
2022/05/12 09:14:00;;;;;;;7.28;2.65;;;;;;;31.25;30.03;98856.38;5090702;28;20040;-65
2022/05/12 09:16:51;;;;;;;3.95;2.30;;;;;;;31.21;31.05;98848.75;5091690;28;20040;-63
2022/05/12 09:19:36;;;;;;;6.00;2.80;;;;;;;30.62;30.86;98860.44;5093276;28;20028;-64
2022/05/12 09:22:28;;;;;;;4.47;2.50;;;;;;;30.96;30.96;98859.88;5093436;28;20036;-63
2022/05/12 09:25:36;;;;;;;6.03;2.30;;;;;;;31.42;30.26;98856.47;5093513;28;20062;-63
2022/05/12 09:28:36;;;;;;;4.45;2.33;;;;;;;31.45;29.42;98856.78;5090993;28;20344;-63
2022/05/12 09:31:20;;;;;;;2.55;1.80;;;;;;;31.16;29.38;98845.13;5091286;28;20089;-60
2022/05/12 09:34:23;;;;;;;4.28;2.00;;;;;;;31.15;27.44;98855.09;5089373;28;20047;-62
2022/05/12 09:37:24;;;;;;;5.00;1.92;;;;;;;31.25;28.36;98849.09;5090810;28;20051;-62
2022/05/12 09:40:27;;;;;;;4.20;1.67;;;;;;;31.29;27.54;98852.94;5090729;28;20488;-57
2022/05/12 09:43:32;;;;;;;6.55;1.80;;;;;;;31.07;26.89;98858.19;5092703;28;20531;-62
2022/05/12 09:46:17;;;;;;;4.43;2.25;;;;;;;31.17;27.12;98849.47;5093024;28;20040;-61
2022/05/12 09:49:20;;;;;;;3.90;1.85;;;;;;;30.80;28.41;98851.41;5092388;28;20047;-61
2022/05/12 09:52:18;;;;;;;2.63;1.80;;;;;;;31.90;26.85;98856.22;5089523;28;20047;-63
2022/05/12 09:55:28;;;;;;;3.90;1.70;;;;;;;31.60;27.14;98855.44;5105488;28;20119;-61
2022/05/12 09:58:16;;;;;;;4.30;1.87;;;;;;;31.47;27.18;98860.09;5091089;28;20043;-60
2022/05/12 10:01:17;;;;;;;2.65;1.63;;;;;;;31.65;27.46;98870.94;5092606;28;20036;-62
2022/05/12 10:10:30;;;;;;;3.90;1.65;;;;;;;31.57;26.76;98859.47;5091287;28;20044;-59
2022/05/12 10:13:24;;;;;;;3.95;1.80;;;;;;;31.99;26.36;98851.28;5093844;28;20476;-62
2022/05/12 10:16:11;;;;;;;4.30;1.73;;;;;;;31.81;27.29;98847.72;5092101;28;20050;-60
2022/05/12 10:19:00;;;;;;;3.92;1.23;;;;;;;31.78;25.70;98853.63;5091104;28;20038;-60
2022/05/12 10:22:01;;;;;;;6.10;1.70;;;;;;;31.37;25.77;98851.72;5086236;28;20048;-62
2022/05/12 10:24:57;;;;;;;2.70;1.45;;;;;;;31.52;25.08;98843.13;5091672;28;20028;-61
2022/05/12 10:27:57;;;;;;;1.88;1.30;;;;;;;31.89;25.03;98844.56;5091597;28;20104;-61
2022/05/12 10:30:55;;;;;;;2.78;1.38;;;;;;;32.25;24.77;98857.13;5091619;28;20040;-62
2022/05/12 10:33:53;;;;;;;2.00;1.40;;;;;;;32.30;24.45;98839.03;5090681;28;20436;-62
2022/05/12 10:36:52;;;;;;;5.03;1.58;;;;;;;32.61;23.74;98846.03;5083021;28;20044;-59
2022/05/12 10:39:54;;;;;;;4.50;1.42;;;;;;;31.84;24.83;98852.63;5092469;28;20027;-60
2022/05/12 10:42:57;;;;;;;2.28;1.77;;;;;;;31.32;25.16;98838.94;5091409;28;20074;-62
2022/05/12 10:45:55;;;;;;;3.38;1.40;;;;;;;31.50;25.45;98857.97;5092194;28;20469;-61
2022/05/12 10:48:58;;;;;;;4.65;1.70;;;;;;;31.49;25.29;98843.63;5092639;28;20044;-61
2022/05/12 10:51:52;;;;;;;10.32;1.65;;;;;;;31.40;25.25;98850.47;5091780;28;20048;-61
2022/05/12 10:54:55;;;;;;;2.03;1.60;;;;;;;31.45;24.81;98859.50;5091701;28;20036;-61
2022/05/12 10:57:49;;;;;;;4.35;1.75;;;;;;;31.35;25.38;98846.56;5091095;28;20429;-62
2022/05/12 11:00:44;;;;;;;2.65;1.40;;;;;;;31.49;25.15;98850.91;5099067;28;20040;-59
2022/05/12 11:03:35;;;;;;;2.22;1.33;;;;;;;31.16;25.63;98837.81;5089863;28;20040;-61
2022/05/12 11:06:27;;;;;;;3.53;1.65;;;;;;;31.15;25.65;98849.69;5102715;28;20044;-62
2022/05/12 11:09:15;;;;;;;1.77;1.50;;;;;;;30.87;25.97;98848.56;5092095;28;20044;-64
2022/05/12 11:12:10;;;;;;;3.58;1.50;;;;;;;31.24;25.72;98855.53;5092633;28;20040;-62
2022/05/12 11:15:09;;;;;;;4.53;1.83;;;;;;;31.74;26.09;98841.63;5069477;28;20048;-61
2022/05/12 11:18:04;;;;;;;2.63;1.48;;;;;;;32.00;25.26;98823.97;5084633;28;20040;-62
2022/05/12 11:20:59;;;;;;;4.97;1.70;;;;;;;30.97;26.38;98843.41;5097329;28;20063;-62
2022/05/12 11:24:22;;;;;;;3.05;1.67;;;;;;;31.28;26.24;98842.38;5093165;28;20055;-61
2022/05/12 11:27:23;;;;;;;4.63;1.60;;;;;;;31.60;26.00;98841.91;5079194;28;20040;-62
2022/05/12 11:30:25;;;;;;;2.45;1.70;;;;;;;33.15;24.78;98833.72;5098605;28;20187;-60
2022/05/12 11:33:20;;;;;;;5.10;2.00;;;;;;;32.69;24.84;98832.84;5091920;28;20040;-61
2022/05/12 11:36:07;;;;;;;4.82;1.90;;;;;;;31.52;26.16;98845.00;5092273;28;20238;-61
2022/05/12 11:38:53;;;;;;;5.57;1.70;;;;;;;31.03;26.50;98836.19;5091869;28;20040;-61
2022/05/12 11:41:40;;;;;;;3.03;1.80;;;;;;;31.63;26.61;98837.91;5090647;28;20043;-60
2022/05/12 11:44:29;;;;;;;3.35;1.95;;;;;;;31.73;25.82;98829.94;5095393;28;20044;-60
2022/05/12 11:47:50;;;;;;;6.68;1.92;;;;;;;31.82;26.59;98823.09;5090840;28;20131;-63
2022/05/12 11:50:42;;;;;;;2.90;1.88;;;;;;;32.15;25.66;98826.09;5089141;28;20509;-60
2022/05/12 11:53:53;;;;;;;5.85;1.85;;;;;;;31.53;26.53;98833.13;5083595;28;20084;-57
2022/05/12 11:56:38;;;;;;;5.65;1.88;;;;;;;32.00;26.40;98825.84;5088373;28;20055;-62
2022/05/12 11:59:25;;;;;;;3.10;1.60;;;;;;;32.44;26.06;98834.13;5091009;28;20117;-62
2022/05/12 12:02:29;;;;;;;5.47;1.90;;;;;;;32.82;25.58;98844.41;5091236;28;20047;-61
2022/05/12 12:05:26;;;;;;;2.60;1.77;;;;;;;33.71;24.43;98843.53;5090507;28;20040;-61
2022/05/12 12:08:11;;;;;;;2.60;1.92;;;;;;;32.81;25.79;98830.03;5091665;28;20032;-62
2022/05/12 12:11:14;;;;;;;4.80;1.90;;;;;;;32.03;26.11;98841.59;5076506;28;20114;-62
2022/05/12 12:14:00;;;;;;;4.18;1.92;;;;;;;31.79;26.98;98842.53;5091389;28;20048;-61
2022/05/12 12:17:10;;;;;;;3.88;1.63;;;;;;;32.36;25.95;98823.69;5091605;28;20063;-62
2022/05/12 12:19:58;;;;;;;6.65;2.00;;;;;;;31.88;26.40;98840.22;5091900;28;20044;-60
2022/05/12 12:22:49;;;;;;;2.83;1.83;;;;;;;31.43;27.12;98834.59;5091964;28;20066;-61
2022/05/12 12:25:40;;;;;;;4.18;2.15;;;;;;;31.85;26.28;98829.91;5090442;28;20044;-60
2022/05/12 12:28:36;;;;;;;2.72;1.83;;;;;;;31.62;27.08;98842.50;5091892;28;20487;-62
2022/05/12 12:31:26;;;;;;;2.55;1.60;;;;;;;31.34;27.63;98839.53;5091159;28;20040;-62
2022/05/12 12:34:21;;;;;;;3.05;1.90;;;;;;;30.94;27.85;98843.03;5090958;28;20036;-62
2022/05/12 12:37:09;;;;;;;8.48;2.08;;;;;;;31.09;27.86;98823.63;5104165;28;20119;-62
2022/05/12 12:39:55;;;;;;;7.40;1.90;;;;;;;31.30;28.00;98832.13;5076132;28;20055;-62
2022/05/12 12:42:45;;;;;;;5.22;1.83;;;;;;;31.12;28.26;98833.13;5106485;28;20040;-61
2022/05/12 12:45:29;;;;;;;6.47;2.20;;;;;;;31.28;27.66;98832.38;5095093;28;20039;-60
2022/05/12 12:48:19;;;;;;;5.40;2.10;;;;;;;32.05;26.86;98826.75;5093982;28;20032;-60
2022/05/12 12:51:04;;;;;;;3.17;2.08;;;;;;;31.40;27.04;98842.38;5093923;28;20410;-61
2022/05/12 12:56:51;;;;;;;3.72;1.90;;;;;;;31.30;28.69;98829.44;5095002;28;20051;-60
2022/05/12 13:00:06;;;;;;;7.28;2.53;;;;;;;31.02;28.66;98820.22;5092129;28;20040;-61
2022/05/12 13:02:57;;;;;;;3.10;1.85;;;;;;;31.19;28.29;98823.00;5088147;28;20044;-61
2022/05/12 13:05:41;;;;;;;;;;;;;;;31.67;27.28;98818.22;5081733;28;20105;-63
2022/05/12 13:08:28;;;;;;;4.15;2.30;;;;;;;31.32;28.11;98821.91;5094604;28;19916;-60
2022/05/12 13:11:20;;;;;;;2.20;1.90;;;;;;;31.65;28.26;98803.28;5093933;28;20093;-61
2022/05/12 13:14:08;;;;;;;3.58;1.80;;;;;;;32.63;26.38;98793.19;5094994;28;20479;-60
2022/05/12 13:16:53;;;;;;;6.88;1.80;;;;;;;31.90;27.08;98807.50;5093323;28;20483;-61
2022/05/12 13:19:39;;;;;;;5.25;2.10;;;;;;;31.07;28.23;98807.63;5094430;28;20044;-60
2022/05/12 13:22:31;;;;;;;7.97;2.20;;;;;;;31.54;28.53;98807.69;5094261;28;20036;-60
2022/05/12 13:25:24;;;;;;;3.35;1.90;;;;;;;31.42;28.81;98802.38;5107409;28;20097;-59
2022/05/12 13:28:20;;;;;;;5.35;2.10;;;;;;;31.69;28.38;98804.44;5095095;28;20065;-61
2022/05/12 13:31:35;;;;;;;4.13;1.88;;;;;;;31.34;28.63;98807.06;5079671;28;20041;-61